首页
METAR-TAF:

METAR-TAF

机场 :

Golden, 不列颠哥伦比亚, 加拿大

纬度: 51-18N, 经度: 116-59W, 海拔: 785米

当前天气观测

该预报发布于9小时和45分钟前的00:00 UTC
静风
温度 0°C
湿度 93%
气压 1022 hPa
能見度: 32.2公里
散云层高于3000英尺
多云层高于7000英尺
阴天层高于10000英尺

METAR: CYGE 150000Z 00000KT 20SM SCT030 BKN070 OVC100 00/M01 A3017 RMK SC4AC2AC2 VIS E 10 LAST STFD OBS/NEXT 151400Z SLP253

时间: 02:45 (09:45 UTC)


TAF: 丢失

超过4000个机场的气象观测和天气预报(METAR&TAF报告)。

可查询的气象台以黄色和红色小点在地图上表示。

将鼠标移到小点上方,可查看气象台名称。

然后点击查看天气观测和预报。

如需切换地图:点击带黑十字的绿色按钮放大地图;点击带横线的绿色按钮缩小地图;或者点击绿色箭头查看邻近地区的地图。


METAR-TAF: